This is the latest recevied weather packets stored in our database for station/object KC5DP. If no packets are shown the sender has not sent any weather packets the latest 10 day(s).
| Time | Temp. | Humidity | Pressure | Rain* | Wind** | Luminosity | Snow |
|---|---|---|---|---|---|---|---|
| 1777993379 | 25.56° C | 68% | 1012.3 hPa | 0 mm | - | 557 W/m² | - |
| 1777993079 | 25.56° C | 70% | 1012.1 hPa | 0 mm | - | 524 W/m² | - |
| 1777992778 | 24.44° C | 72% | 1012.1 hPa | 0 mm | - | 223 W/m² | - |
| 1777992475 | 24.44° C | 72% | 1012.2 hPa | 0 mm | - | 440 W/m² | - |
| 1777992173 | 25° C | 73% | 1012.4 hPa | 0 mm | - | 492 W/m² | - |
| 1777991870 | 24.44° C | 75% | 1012.5 hPa | 0 mm | - | 451 W/m² | - |
| 1777991567 | 24.44° C | 74% | 1012.6 hPa | 0 mm | - | 231 W/m² | - |
| 1777991264 | 23.89° C | 75% | 1012.5 hPa | 0 mm | - | 357 W/m² | - |
| 1777990961 | 23.33° C | 76% | 1012.6 hPa | 0 mm | - | 384 W/m² | - |
| 1777990659 | 23.33° C | 76% | 1012.4 hPa | 0 mm | - | 318 W/m² | - |
| 1777990357 | 23.89° C | 76% | 1012.5 hPa | 0 mm | - | 322 W/m² | - |
| 1777990052 | 22.78° C | 78% | 1012.4 hPa | 0 mm | - | 285 W/m² | - |
| 1777989749 | 22.22° C | 79% | 1012.5 hPa | 0 mm | - | 323 W/m² | - |
| 1777989445 | 22.78° C | 78% | 1012.4 hPa | 0 mm | - | 267 W/m² | - |
| 1777989142 | 22.78° C | 80% | 1012.5 hPa | 0 mm | - | 257 W/m² | - |
| 1777988838 | 22.22° C | 81% | 1012.6 hPa | 0 mm | - | 216 W/m² | - |
| 1777988536 | 21.67° C | 84% | 1012.6 hPa | 0 mm | - | 250 W/m² | - |
| 1777988232 | 21.67° C | 83% | 1012.5 hPa | 0 mm | - | 236 W/m² | - |
| 1777987928 | 21.67° C | 82% | 1012.6 hPa | 0 mm | - | 217 W/m² | - |
| 1777987624 | 21.11° C | 84% | 1012.3 hPa | 0 mm | - | 220 W/m² | - |
| 1777987322 | 20.56° C | 86% | 1012.3 hPa | 0 mm | - | 208 W/m² | - |
| 1777987019 | 20° C | 88% | 1012.2 hPa | 0 mm | - | 162 W/m² | - |
| 1777986716 | 19.44° C | 89% | 1012.2 hPa | 0 mm | - | 157 W/m² | - |
| 1777986414 | 18.33° C | 93% | 1012.2 hPa | 0 mm | - | 136 W/m² | - |
| 1777986113 | 17.78° C | 97% | 1012.1 hPa | 0 mm | - | 112 W/m² | - |
* Rain latest hour (hover to see other rain measurements)
** Current wind speed in m/s (hover to see current wind gust speed)